Time;durP1;ratioP1;P1;durP2;ratioP2;P2;SDS_P1;SDS_P2;PMS_P1;PMS_P2;Temp;Humidity;BMP_temperature;BMP_pressure;BME280_temperature;BME280_humidity;BME280_pressure;Samples;Min_cycle;Max_cycle;Signal;HPM_P1;HPM_P2
2023/10/02 00:01:10;;;;;;;6.70;5.83;;;11.10;99.90;;;;;;5034138;28;20469;-63
2023/10/02 00:03:40;;;;;;;7.60;5.87;;;11.00;99.90;;;;;;5033975;28;21011;-64
2023/10/02 00:06:07;;;;;;;8.03;5.70;;;11.00;99.90;;;;;;5034358;28;20827;-64
2023/10/02 00:08:39;;;;;;;6.20;4.67;;;11.00;99.90;;;;;;5034146;28;20437;-64
2023/10/02 00:11:37;;;;;;;6.97;5.40;;;11.00;99.90;;;;;;5034283;28;20866;-64
2023/10/02 00:14:20;;;;;;;7.20;5.07;;;11.00;99.90;;;;;;5033913;28;20892;-64
2023/10/02 00:17:03;;;;;;;11.33;6.10;;;10.90;99.90;;;;;;5033908;28;20484;-64
2023/10/02 00:19:35;;;;;;;6.30;4.80;;;10.90;99.90;;;;;;5033787;28;20480;-64
2023/10/02 00:22:05;;;;;;;7.03;5.70;;;10.90;99.90;;;;;;5021191;22;20498;-63
2023/10/02 00:24:35;;;;;;;5.27;4.77;;;10.80;99.90;;;;;;4993551;28;20513;-63
2023/10/02 00:27:03;;;;;;;8.17;5.60;;;10.80;99.90;;;;;;4994611;28;20900;-63
2023/10/02 00:29:30;;;;;;;7.73;5.50;;;10.80;99.90;;;;;;4994487;28;20457;-63
2023/10/02 00:31:59;;;;;;;8.47;5.50;;;10.80;99.90;;;;;;4993528;28;20470;-63
2023/10/02 00:34:33;;;;;;;7.77;6.03;;;10.80;99.90;;;;;;4994099;28;20457;-64
2023/10/02 00:37:05;;;;;;;5.23;4.33;;;10.80;99.90;;;;;;4993706;28;20601;-63
2023/10/02 00:39:32;;;;;;;7.70;6.30;;;10.70;99.90;;;;;;4994635;28;20454;-63
2023/10/02 00:42:24;;;;;;;6.80;4.93;;;10.70;99.90;;;;;;4994331;28;20467;-63
2023/10/02 00:44:51;;;;;;;8.57;5.50;;;10.70;99.90;;;;;;4993937;28;20976;-63
2023/10/02 00:47:38;;;;;;;11.27;5.43;;;10.70;99.90;;;;;;4993915;28;20450;-63
2023/10/02 00:50:14;;;;;;;6.00;5.10;;;10.70;99.90;;;;;;4994045;28;20586;-63
2023/10/02 00:52:43;;;;;;;7.27;5.00;;;10.60;99.90;;;;;;4993869;28;20957;-63
2023/10/02 00:55:12;;;;;;;10.60;5.50;;;10.60;99.90;;;;;;4993739;28;20985;-63
2023/10/02 00:57:40;;;;;;;6.27;4.50;;;10.60;99.90;;;;;;4993896;28;20487;-63
2023/10/02 01:00:17;;;;;;;11.73;6.80;;;10.60;99.90;;;;;;4993904;28;20550;-63
2023/10/02 01:02:48;;;;;;;5.37;4.80;;;10.60;99.90;;;;;;4993946;28;20485;-63
2023/10/02 01:05:16;;;;;;;6.53;4.67;;;10.60;99.90;;;;;;4993899;28;20537;-63
2023/10/02 01:07:44;;;;;;;5.10;4.50;;;10.50;99.90;;;;;;4993461;28;20482;-63
2023/10/02 01:10:18;;;;;;;6.70;4.70;;;10.50;99.90;;;;;;4993561;28;20853;-63
2023/10/02 01:12:50;;;;;;;7.23;4.80;;;10.50;99.90;;;;;;4993372;28;20443;-63
2023/10/02 01:15:26;;;;;;;6.30;5.70;;;10.50;99.90;;;;;;4993402;28;20484;-63
2023/10/02 01:18:18;;;;;;;7.90;5.30;;;10.50;99.90;;;;;;4993582;28;20528;-63
2023/10/02 01:20:48;;;;;;;7.27;5.63;;;10.50;99.90;;;;;;4993042;28;20864;-63
2023/10/02 01:23:17;;;;;;;6.13;4.87;;;10.50;99.90;;;;;;4993196;28;20453;-63
2023/10/02 01:25:47;;;;;;;5.33;4.83;;;10.40;99.90;;;;;;4993119;28;20454;-63
2023/10/02 01:28:15;;;;;;;8.33;5.00;;;10.40;99.90;;;;;;4993507;28;20838;-63
2023/10/02 01:30:44;;;;;;;7.30;5.70;;;10.40;99.90;;;;;;4993293;28;20573;-63
2023/10/02 01:33:14;;;;;;;6.30;5.63;;;10.40;99.90;;;;;;4993235;28;20454;-63
2023/10/02 01:35:46;;;;;;;9.17;6.40;;;10.40;99.90;;;;;;4991886;28;20460;-63
2023/10/02 01:38:14;;;;;;;8.10;6.30;;;10.30;99.90;;;;;;4992944;28;20501;-63
2023/10/02 01:40:42;;;;;;;5.33;4.17;;;10.30;99.90;;;;;;4993034;28;20478;-63
2023/10/02 01:43:13;;;;;;;8.23;5.60;;;10.30;99.90;;;;;;4992864;28;20454;-63
2023/10/02 01:45:44;;;;;;;12.40;5.60;;;10.30;99.90;;;;;;4993500;28;21017;-63
2023/10/02 01:48:36;;;;;;;8.43;7.60;;;10.30;99.90;;;;;;4993252;28;20525;-63
2023/10/02 01:51:15;;;;;;;7.03;5.13;;;10.30;99.90;;;;;;4993012;28;20478;-63
2023/10/02 01:53:43;;;;;;;6.83;5.40;;;10.30;99.90;;;;;;4992687;28;20456;-63
2023/10/02 01:56:12;;;;;;;7.03;5.00;;;10.30;99.90;;;;;;4993080;28;20891;-63
2023/10/02 01:58:41;;;;;;;9.63;6.17;;;10.20;99.90;;;;;;4992912;28;20520;-63
2023/10/02 02:01:09;;;;;;;7.17;5.63;;;10.20;99.90;;;;;;4992557;28;20480;-63
2023/10/02 02:03:38;;;;;;;5.77;5.20;;;10.20;99.90;;;;;;4992457;28;20505;-63
2023/10/02 02:06:09;;;;;;;7.77;5.20;;;10.20;99.90;;;;;;4992022;28;20462;-63
2023/10/02 02:08:37;;;;;;;7.07;5.93;;;10.20;99.90;;;;;;4992063;28;20446;-63
2023/10/02 02:11:18;;;;;;;8.20;4.80;;;10.20;99.90;;;;;;4992287;28;20561;-63
2023/10/02 02:13:47;;;;;;;5.90;5.00;;;10.20;99.90;;;;;;4992066;28;20445;-63
2023/10/02 02:16:17;;;;;;;9.20;6.80;;;10.20;99.90;;;;;;4992067;28;20446;-63
2023/10/02 02:18:45;;;;;;;9.80;6.20;;;10.10;99.90;;;;;;4992295;28;20496;-63
2023/10/02 02:21:16;;;;;;;9.87;6.30;;;10.10;99.90;;;;;;4992473;28;20829;-63
2023/10/02 02:23:45;;;;;;;6.13;5.10;;;10.10;99.90;;;;;;4992040;28;20546;-63
2023/10/02 02:26:20;;;;;;;8.10;5.43;;;10.10;99.90;;;;;;4992597;28;20462;-63
2023/10/02 02:28:49;;;;;;;7.60;5.60;;;10.10;99.90;;;;;;4992361;28;20492;-63
2023/10/02 02:33:58;;;;;;;6.43;5.13;;;10.00;99.90;;;;;;4992151;28;20453;-63
2023/10/02 02:36:26;;;;;;;8.00;6.30;;;10.00;99.90;;;;;;4992662;28;20450;-63
2023/10/02 02:39:15;;;;;;;5.60;5.00;;;10.00;99.90;;;;;;4992212;28;20493;-63
2023/10/02 02:41:42;;;;;;;8.70;6.37;;;10.00;99.90;;;;;;4991728;28;21102;-63
2023/10/02 02:44:29;;;;;;;8.40;5.50;;;10.00;99.90;;;;;;4991905;28;20538;-63
2023/10/02 02:46:56;;;;;;;8.17;5.50;;;10.00;99.90;;;;;;4991701;28;20455;-63
2023/10/02 02:49:25;;;;;;;6.73;6.03;;;10.00;99.90;;;;;;4992037;28;20536;-63
2023/10/02 02:51:55;;;;;;;6.67;5.50;;;9.90;99.90;;;;;;4992315;28;20473;-63
2023/10/02 02:54:27;;;;;;;8.57;7.17;;;9.90;99.90;;;;;;4991838;28;20454;-63
2023/10/02 02:56:58;;;;;;;8.30;5.53;;;9.90;99.90;;;;;;4992194;28;20464;-63
2023/10/02 02:59:29;;;;;;;9.70;6.80;;;9.90;99.90;;;;;;4992430;28;20894;-63
2023/10/02 03:02:08;;;;;;;8.13;5.37;;;9.80;99.90;;;;;;4992014;28;20493;-63
2023/10/02 03:04:38;;;;;;;8.00;5.40;;;9.80;99.90;;;;;;4990676;28;20476;-63
2023/10/02 03:07:09;;;;;;;8.03;5.40;;;9.80;99.90;;;;;;4991549;28;20586;-63
2023/10/02 03:09:36;;;;;;;6.60;4.60;;;9.80;99.90;;;;;;4992010;28;20429;-63
2023/10/02 03:12:05;;;;;;;8.40;5.20;;;9.80;99.90;;;;;;4991691;28;20470;-63
2023/10/02 03:14:34;;;;;;;10.00;6.43;;;9.80;99.90;;;;;;5009819;28;20453;-63
2023/10/02 03:17:22;;;;;;;6.60;6.00;;;9.80;99.90;;;;;;5011375;28;20459;-63
2023/10/02 03:19:49;;;;;;;5.90;5.07;;;9.80;99.90;;;;;;5008255;28;20524;-63
2023/10/02 03:22:20;;;;;;;9.10;5.40;;;9.80;99.90;;;;;;5005487;28;20453;-63
2023/10/02 03:24:48;;;;;;;6.77;5.70;;;9.70;99.90;;;;;;4993955;28;20937;-64
2023/10/02 03:27:15;;;;;;;7.60;4.90;;;9.70;99.90;;;;;;4992047;28;20456;-63
2023/10/02 03:29:45;;;;;;;6.50;5.30;;;9.70;99.90;;;;;;4991911;28;20442;-63
2023/10/02 03:32:12;;;;;;;7.23;5.20;;;9.70;99.90;;;;;;4990718;28;20476;-63
2023/10/02 03:34:48;;;;;;;6.20;5.40;;;9.70;99.90;;;;;;4986869;28;20458;-63
2023/10/02 03:37:21;;;;;;;7.00;6.30;;;9.60;99.90;;;;;;4991153;28;20881;-63
2023/10/02 03:40:13;;;;;;;7.13;5.90;;;9.60;99.90;;;;;;4986749;28;20487;-63
2023/10/02 03:42:40;;;;;;;9.00;5.87;;;9.60;99.90;;;;;;4984336;28;20457;-63
2023/10/02 03:45:09;;;;;;;5.50;5.00;;;9.60;99.90;;;;;;4991837;28;20800;-63
2023/10/02 03:47:37;;;;;;;9.30;6.10;;;9.60;99.90;;;;;;4991544;28;20441;-63
2023/10/02 03:50:11;;;;;;;7.27;6.00;;;9.60;99.90;;;;;;4990758;28;20457;-63
2023/10/02 03:52:41;;;;;;;8.53;6.27;;;9.60;99.90;;;;;;4991410;28;20450;-63
2023/10/02 03:55:19;;;;;;;6.67;5.37;;;9.60;99.90;;;;;;4991496;28;20466;-63
2023/10/02 03:57:49;;;;;;;7.93;5.70;;;9.50;99.90;;;;;;4991558;28;20448;-63
2023/10/02 04:00:22;;;;;;;5.47;4.70;;;9.50;99.90;;;;;;4994612;28;20468;-63
2023/10/02 04:02:50;;;;;;;7.97;6.47;;;9.50;99.90;;;;;;4994951;28;20449;-63
2023/10/02 04:05:32;;;;;;;8.47;5.70;;;9.50;99.90;;;;;;4994919;28;20866;-63
2023/10/02 04:08:21;;;;;;;7.53;5.60;;;9.50;99.90;;;;;;4995103;28;20499;-63
2023/10/02 04:11:03;;;;;;;6.80;5.50;;;9.40;99.90;;;;;;4994927;28;20471;-63
2023/10/02 04:13:33;;;;;;;8.93;6.27;;;9.40;99.90;;;;;;4994521;28;20925;-63
2023/10/02 04:18:49;;;;;;;8.47;5.23;;;9.40;99.90;;;;;;4994840;28;20481;-63
2023/10/02 04:21:19;;;;;;;7.10;6.40;;;9.40;99.90;;;;;;4994163;28;20861;-63
2023/10/02 04:23:46;;;;;;;7.60;6.47;;;9.40;99.90;;;;;;4994356;28;20453;-63
2023/10/02 04:26:19;;;;;;;6.50;5.83;;;9.40;99.90;;;;;;4994715;28;20529;-63
2023/10/02 04:28:54;;;;;;;7.23;5.40;;;9.30;99.90;;;;;;4994716;28;20492;-63
2023/10/02 04:31:22;;;;;;;10.93;6.17;;;9.30;99.90;;;;;;4994936;28;20482;-63
2023/10/02 04:34:14;;;;;;;5.70;5.20;;;9.30;99.90;;;;;;4994331;28;20840;-63
2023/10/02 04:36:41;;;;;;;7.53;5.33;;;9.30;99.90;;;;;;4989289;28;20958;-63
2023/10/02 04:39:41;;;;;;;7.57;6.77;;;9.30;99.90;;;;;;4994570;28;20616;-63
2023/10/02 04:42:11;;;;;;;9.17;7.00;;;9.30;99.90;;;;;;4994076;28;20470;-63
2023/10/02 04:44:44;;;;;;;9.10;5.60;;;9.20;99.90;;;;;;4994162;28;20477;-63
2023/10/02 04:47:17;;;;;;;7.60;6.00;;;9.20;99.90;;;;;;4993528;28;20817;-63
2023/10/02 04:50:34;;;;;;;8.50;6.03;;;9.20;99.90;;;;;;4994109;28;20485;-63
2023/10/02 04:52:53;;;;;;;8.27;6.33;;;9.20;99.90;;;;;;4993555;28;20572;-63
2023/10/02 04:55:24;;;;;;;7.03;6.30;;;9.20;99.90;;;;;;4993890;28;20454;-63
2023/10/02 04:57:52;;;;;;;11.23;5.67;;;9.20;99.90;;;;;;4994161;28;20504;-63
2023/10/02 05:05:58;;;;;;;7.83;6.87;;;9.10;99.90;;;;;;4978162;28;20461;-63
2023/10/02 05:08:33;;;;;;;11.07;7.07;;;9.10;99.90;;;;;;4993711;28;20451;-63
2023/10/02 05:11:06;;;;;;;6.60;5.67;;;9.10;99.90;;;;;;4993235;28;21082;-63
2023/10/02 05:16:26;;;;;;;8.27;6.40;;;9.20;99.90;;;;;;4993569;28;20430;-63
2023/10/02 05:18:54;;;;;;;6.70;5.87;;;9.10;99.90;;;;;;4993896;28;20323;-63
2023/10/02 05:21:35;;;;;;;10.00;6.60;;;9.10;99.90;;;;;;4993342;28;20497;-63
2023/10/02 05:24:02;;;;;;;9.67;6.87;;;9.10;99.90;;;;;;4993414;28;20580;-63
2023/10/02 05:26:36;;;;;;;12.15;6.60;;;9.10;99.90;;;;;;4993518;28;20540;-63
2023/10/02 05:29:06;;;;;;;7.37;6.40;;;9.10;99.90;;;;;;4993618;28;20201;-63
2023/10/02 05:31:35;;;;;;;7.60;5.10;;;9.10;99.90;;;;;;4992973;28;20469;-63
2023/10/02 05:34:08;;;;;;;7.13;5.73;;;9.10;99.90;;;;;;4992601;28;20457;-63
2023/10/02 05:36:36;;;;;;;7.57;5.40;;;9.10;99.90;;;;;;4993342;28;20528;-63
2023/10/02 05:39:28;;;;;;;9.73;5.90;;;9.00;99.90;;;;;;4995504;28;20485;-63
2023/10/02 05:41:56;;;;;;;8.17;6.30;;;9.10;99.90;;;;;;5002492;28;20464;-63
2023/10/02 05:44:25;;;;;;;6.83;5.77;;;9.10;99.90;;;;;;5012247;28;20481;-63
2023/10/02 05:47:05;;;;;;;6.47;5.13;;;9.10;99.90;;;;;;5012485;28;20458;-63
2023/10/02 05:49:33;;;;;;;7.67;5.80;;;9.10;99.90;;;;;;5012389;28;20445;-63
2023/10/02 05:52:02;;;;;;;8.03;5.60;;;9.10;99.90;;;;;;5012728;28;20471;-63
2023/10/02 05:54:35;;;;;;;7.13;5.07;;;9.10;99.90;;;;;;5012614;28;20488;-63
2023/10/02 05:57:12;;;;;;;10.27;5.80;;;9.10;99.90;;;;;;5012564;28;20544;-63
2023/10/02 05:59:45;;;;;;;6.43;5.43;;;9.20;99.90;;;;;;5012578;28;20486;-63
2023/10/02 06:02:12;;;;;;;6.87;6.17;;;9.20;99.90;;;;;;5012512;28;20473;-63
2023/10/02 06:04:47;;;;;;;6.15;5.60;;;9.30;99.90;;;;;;5011681;28;20461;-63
2023/10/02 06:07:19;;;;;;;9.90;6.33;;;9.30;99.90;;;;;;5012250;28;20259;-63
2023/10/02 06:09:46;;;;;;;6.37;5.73;;;9.30;99.90;;;;;;5004870;28;20449;-63
2023/10/02 06:12:13;;;;;;;6.17;5.57;;;9.40;99.90;;;;;;5003034;28;20909;-63
2023/10/02 06:14:42;;;;;;;8.73;6.30;;;9.40;99.90;;;;;;4997435;28;21020;-63
2023/10/02 06:17:11;;;;;;;9.20;5.77;;;9.40;99.90;;;;;;4995340;28;20906;-63
2023/10/02 06:19:43;;;;;;;10.77;7.00;;;9.50;99.90;;;;;;4992441;28;20526;-63
2023/10/02 06:22:13;;;;;;;6.47;5.87;;;9.50;99.90;;;;;;4991834;28;20476;-62
2023/10/02 06:24:40;;;;;;;7.33;6.30;;;9.60;99.90;;;;;;4992249;28;20504;-63
2023/10/02 06:27:13;;;;;;;6.07;5.57;;;9.60;99.90;;;;;;4992495;28;20453;-63
2023/10/02 06:29:44;;;;;;;7.30;5.93;;;9.60;99.90;;;;;;5019261;22;20504;-63
2023/10/02 06:32:19;;;;;;;8.97;7.40;;;9.70;99.90;;;;;;5012130;28;20514;-63
2023/10/02 06:34:50;;;;;;;7.20;5.30;;;9.70;99.90;;;;;;5011298;28;20489;-63
2023/10/02 06:37:19;;;;;;;6.70;5.17;;;9.80;99.90;;;;;;5011796;28;20963;-63
2023/10/02 06:40:02;;;;;;;8.20;6.03;;;9.80;99.90;;;;;;5010859;28;20929;-63
2023/10/02 06:42:29;;;;;;;5.90;5.30;;;9.80;99.90;;;;;;5011059;28;20449;-63
2023/10/02 06:44:58;;;;;;;9.13;6.43;;;9.90;99.90;;;;;;5011595;28;20536;-63
2023/10/02 06:47:29;;;;;;;6.53;5.50;;;9.90;99.90;;;;;;5011516;28;20740;-63
2023/10/02 06:50:02;;;;;;;14.00;7.13;;;10.00;99.90;;;;;;5010715;28;20476;-63
2023/10/02 06:52:32;;;;;;;8.90;5.80;;;10.00;99.90;;;;;;5011826;28;20543;-64
2023/10/02 06:55:01;;;;;;;10.40;6.60;;;10.00;99.90;;;;;;5011620;28;20481;-63
2023/10/02 06:57:29;;;;;;;8.93;5.60;;;10.10;99.90;;;;;;5011730;28;20456;-63
2023/10/02 06:59:56;;;;;;;10.10;5.77;;;10.10;99.90;;;;;;5011013;28;20493;-63
2023/10/02 07:02:25;;;;;;;8.40;6.47;;;10.20;99.90;;;;;;5011286;28;20489;-64
2023/10/02 07:04:53;;;;;;;6.07;4.83;;;10.20;99.90;;;;;;5011214;28;20476;-63
2023/10/02 07:07:24;;;;;;;8.40;7.50;;;10.30;99.90;;;;;;5011652;28;20446;-64
2023/10/02 07:09:52;;;;;;;7.17;5.40;;;10.30;99.90;;;;;;5011562;28;20552;-63
2023/10/02 07:12:20;;;;;;;7.77;5.57;;;10.30;99.90;;;;;;5011504;28;20483;-63
2023/10/02 07:14:48;;;;;;;7.87;6.00;;;10.40;99.90;;;;;;5011367;28;20464;-64
2023/10/02 07:17:18;;;;;;;8.20;6.80;;;10.40;99.90;;;;;;5011311;28;20460;-63
2023/10/02 07:19:49;;;;;;;10.80;6.23;;;10.50;99.90;;;;;;5011523;28;20575;-64
2023/10/02 07:22:23;;;;;;;9.00;7.10;;;10.50;99.90;;;;;;5011529;28;20719;-63
2023/10/02 07:24:54;;;;;;;9.70;7.63;;;10.60;99.90;;;;;;5011049;28;20445;-64
2023/10/02 07:27:27;;;;;;;10.13;8.87;;;10.70;99.90;;;;;;5011424;28;20502;-64
2023/10/02 07:29:58;;;;;;;8.87;7.93;;;10.70;99.90;;;;;;5011709;28;20474;-63
2023/10/02 07:32:26;;;;;;;10.37;7.70;;;10.80;99.90;;;;;;5015249;28;20438;-64
2023/10/02 07:34:54;;;;;;;10.60;6.73;;;10.90;99.90;;;;;;5013462;28;20535;-63
2023/10/02 07:37:24;;;;;;;8.67;6.73;;;11.00;99.90;;;;;;5015036;28;20553;-63
2023/10/02 07:40:00;;;;;;;9.10;7.37;;;11.00;99.90;;;;;;5014896;28;20489;-63
2023/10/02 07:42:32;;;;;;;7.03;6.33;;;11.20;99.90;;;;;;5014901;28;20929;-63
2023/10/02 07:45:11;;;;;;;7.40;6.17;;;11.30;99.90;;;;;;5014769;28;20821;-64
2023/10/02 07:47:55;;;;;;;7.53;6.73;;;11.40;99.90;;;;;;5014820;28;20517;-64
2023/10/02 07:50:33;;;;;;;10.90;6.47;;;11.50;99.90;;;;;;5014866;28;20484;-63
2023/10/02 07:53:04;;;;;;;7.23;6.30;;;11.60;99.90;;;;;;5015065;28;20449;-64
2023/10/02 07:55:35;;;;;;;7.00;6.00;;;11.70;99.90;;;;;;5014844;28;20532;-63
2023/10/02 07:58:04;;;;;;;9.47;6.43;;;11.80;99.90;;;;;;5014603;28;20932;-63
2023/10/02 08:00:37;;;;;;;10.20;6.63;;;12.00;99.90;;;;;;5014334;28;20875;-64
2023/10/02 08:03:29;;;;;;;13.53;7.73;;;12.10;99.90;;;;;;5014321;28;20449;-63
2023/10/02 08:05:56;;;;;;;9.13;7.63;;;12.20;99.90;;;;;;5014397;28;20445;-64
2023/10/02 08:08:25;;;;;;;9.97;8.97;;;12.30;99.90;;;;;;5014582;28;20899;-63
2023/10/02 08:10:53;;;;;;;8.27;6.33;;;12.40;99.90;;;;;;5014315;28;20454;-64
2023/10/02 08:13:32;;;;;;;8.63;6.90;;;12.40;99.90;;;;;;5013966;28;20454;-63
2023/10/02 08:16:05;;;;;;;7.90;6.47;;;12.50;99.90;;;;;;5014523;28;20656;-64
2023/10/02 08:18:31;;;;;;;8.70;6.73;;;12.60;99.90;;;;;;5014390;28;20971;-64
2023/10/02 08:21:01;;;;;;;7.17;6.50;;;12.80;99.90;;;;;;5012270;28;20489;-64
2023/10/02 08:23:30;;;;;;;10.13;6.57;;;12.90;99.90;;;;;;5013194;28;20466;-64
2023/10/02 08:26:03;;;;;;;12.00;7.20;;;13.00;99.90;;;;;;5013210;28;20482;-64
2023/10/02 08:28:33;;;;;;;9.33;6.40;;;13.10;99.90;;;;;;5013921;28;20473;-64
2023/10/02 08:31:03;;;;;;;7.60;6.90;;;13.20;99.90;;;;;;5013486;28;20470;-64
2023/10/02 08:33:31;;;;;;;10.17;7.30;;;13.30;99.90;;;;;;5013596;28;20525;-64
2023/10/02 08:36:09;;;;;;;11.43;7.30;;;13.40;99.90;;;;;;5013686;28;20454;-64
2023/10/02 08:38:40;;;;;;;9.53;7.60;;;13.50;99.90;;;;;;5013580;28;20822;-64
2023/10/02 08:41:08;;;;;;;10.60;6.60;;;13.60;99.90;;;;;;5013284;28;20583;-63
2023/10/02 08:43:41;;;;;;;9.67;7.00;;;13.70;99.90;;;;;;5013242;28;20462;-64
2023/10/02 08:46:18;;;;;;;8.00;6.60;;;13.90;99.90;;;;;;5013013;28;21228;-64
2023/10/02 08:48:46;;;;;;;9.03;6.83;;;14.00;99.90;;;;;;5013223;28;20500;-64
2023/10/02 08:51:26;;;;;;;9.70;7.20;;;14.10;99.90;;;;;;5013243;28;20471;-64
2023/10/02 08:53:57;;;;;;;8.53;7.07;;;14.20;99.90;;;;;;5013164;28;20514;-64
2023/10/02 08:56:25;;;;;;;10.53;6.83;;;14.40;99.90;;;;;;5013571;28;20514;-64
2023/10/02 08:59:15;;;;;;;11.40;7.60;;;14.50;99.90;;;;;;5013303;28;20452;-65
2023/10/02 09:01:39;;;;;;;9.70;7.60;;;14.70;99.90;;;;;;5012785;28;20940;-64
2023/10/02 09:07:22;;;;;;;14.17;8.27;;;15.00;99.90;;;;;;4933349;29;20448;-64
2023/10/02 09:10:12;;;;;;;10.60;8.00;;;15.20;99.90;;;;;;5002357;28;20916;-64
2023/10/02 09:12:48;;;;;;;9.63;7.73;;;15.40;99.90;;;;;;5012979;28;20534;-64
2023/10/02 09:15:27;;;;;;;9.17;7.20;;;15.50;99.90;;;;;;5012642;28;20933;-64
2023/10/02 09:17:57;;;;;;;10.93;7.40;;;15.70;99.90;;;;;;5012749;28;20449;-63
2023/10/02 09:20:38;;;;;;;12.30;9.50;;;15.80;99.90;;;;;;5012872;28;20545;-64
2023/10/02 09:23:09;;;;;;;10.67;9.53;;;16.00;99.90;;;;;;5012450;28;20502;-64
2023/10/02 09:25:40;;;;;;;9.50;7.27;;;16.20;99.90;;;;;;5009485;28;20495;-64
2023/10/02 09:28:13;;;;;;;11.23;7.53;;;16.30;99.90;;;;;;5012408;28;20448;-65
2023/10/02 09:30:42;;;;;;;8.93;6.80;;;16.50;99.90;;;;;;5011682;28;20885;-64
2023/10/02 09:33:14;;;;;;;11.70;7.80;;;16.70;99.90;;;;;;5012328;28;20449;-64
2023/10/02 09:35:43;;;;;;;10.47;7.83;;;16.90;99.90;;;;;;5012630;28;20452;-65
2023/10/02 09:38:12;;;;;;;12.70;7.80;;;17.10;99.90;;;;;;5012284;28;20445;-64
2023/10/02 09:41:14;;;;;;;11.30;7.47;;;17.20;99.90;;;;;;5011965;28;20554;-65
2023/10/02 09:43:42;;;;;;;12.87;8.10;;;17.30;99.90;;;;;;5011684;28;20453;-64
2023/10/02 09:46:16;;;;;;;10.33;6.77;;;17.50;99.90;;;;;;5011871;28;20456;-65
2023/10/02 09:48:57;;;;;;;14.43;9.87;;;17.70;99.90;;;;;;5004180;28;20821;-65
2023/10/02 09:51:45;;;;;;;12.00;8.77;;;17.90;99.90;;;;;;5011686;28;20584;-65
2023/10/02 09:54:23;;;;;;;9.50;7.97;;;18.10;99.90;;;;;;4997607;28;20500;-65
2023/10/02 09:57:11;;;;;;;10.30;7.00;;;18.40;99.90;;;;;;5011195;28;20446;-64
2023/10/02 09:59:45;;;;;;;9.20;7.70;;;18.50;99.90;;;;;;5011631;28;20490;-65
2023/10/02 10:10:46;;;;;;;11.60;8.30;;;19.10;99.90;;;;;;5011123;28;20964;-65
2023/10/02 10:13:24;;;;;;;10.60;8.47;;;19.30;99.90;;;;;;5010488;28;20533;-65
2023/10/02 10:15:51;;;;;;;13.87;8.30;;;19.50;99.90;;;;;;5011319;28;20842;-65
2023/10/02 10:18:18;;;;;;;9.13;7.97;;;19.70;99.90;;;;;;5010816;28;20950;-65
2023/10/02 10:20:44;;;;;;;8.23;6.80;;;19.80;99.90;;;;;;5010739;28;20497;-64
2023/10/02 10:23:31;;;;;;;10.60;8.70;;;19.80;99.90;;;;;;5010649;28;20496;-65
2023/10/02 10:26:07;;;;;;;8.33;7.17;;;19.90;99.90;;;;;;5011342;28;20526;-65
2023/10/02 10:28:50;;;;;;;9.13;6.73;;;20.00;99.90;;;;;;5010729;28;20438;-65
2023/10/02 10:31:27;;;;;;;12.90;8.00;;;20.10;99.90;;;;;;5010822;28;20483;-65
2023/10/02 10:33:56;;;;;;;8.60;7.30;;;20.20;99.90;;;;;;5010968;28;20444;-65
2023/10/02 10:36:49;;;;;;;10.90;7.20;;;20.30;99.90;;;;;;5011128;28;20447;-65
2023/10/02 10:39:53;;;;;;;8.93;7.23;;;20.50;99.90;;;;;;5010623;28;20447;-65
2023/10/02 10:42:23;;;;;;;9.73;7.60;;;20.60;99.90;;;;;;4979678;28;20446;-65
2023/10/02 10:44:56;;;;;;;11.63;8.60;;;20.70;99.90;;;;;;5010839;28;20937;-65
2023/10/02 10:47:39;;;;;;;8.70;7.70;;;20.80;99.90;;;;;;5011348;28;20518;-65
2023/10/02 10:50:29;;;;;;;8.57;7.67;;;21.00;99.90;;;;;;4996475;28;20492;-65
2023/10/02 10:53:26;;;;;;;8.87;7.13;;;21.10;99.90;;;;;;5011208;28;20445;-65
2023/10/02 10:55:54;;;;;;;11.90;8.63;;;21.30;99.90;;;;;;5010639;28;20444;-64
2023/10/02 10:58:34;;;;;;;10.67;7.50;;;21.40;99.90;;;;;;5011016;28;20448;-65
2023/10/02 11:01:05;;;;;;;9.57;8.00;;;21.50;99.90;;;;;;5010460;28;21193;-65
2023/10/02 11:03:32;;;;;;;11.83;8.90;;;21.70;99.90;;;;;;5010554;28;20445;-65
2023/10/02 11:06:03;;;;;;;9.17;7.13;;;21.80;99.50;;;;;;5010579;28;20537;-65
2023/10/02 11:08:30;;;;;;;9.97;8.97;;;22.00;99.90;;;;;;5013042;28;20441;-65
2023/10/02 11:11:02;;;;;;;9.90;7.10;;;22.10;99.90;;;;;;5014417;28;20541;-65
2023/10/02 11:13:30;;;;;;;9.07;8.17;;;22.20;99.90;;;;;;5014861;28;20545;-65
2023/10/02 11:16:08;;;;;;;8.70;7.80;;;22.40;99.10;;;;;;4997862;28;20962;-65
2023/10/02 11:18:39;;;;;;;8.80;8.00;;;22.50;99.20;;;;;;5014996;28;20795;-64
2023/10/02 11:21:22;;;;;;;10.20;7.80;;;22.60;99.60;;;;;;5014653;28;20484;-65
2023/10/02 11:23:50;;;;;;;9.33;7.80;;;22.80;98.70;;;;;;5013806;28;20442;-65
2023/10/02 11:26:23;;;;;;;8.53;7.70;;;23.00;98.60;;;;;;5014691;28;20963;-65
2023/10/02 11:28:50;;;;;;;10.53;7.77;;;23.20;97.30;;;;;;5014743;28;20910;-65
2023/10/02 11:31:31;;;;;;;10.77;7.80;;;23.40;96.70;;;;;;5014359;28;20478;-66
2023/10/02 11:34:01;;;;;;;10.83;6.87;;;23.60;96.30;;;;;;4998448;28;20949;-65
2023/10/02 11:36:33;;;;;;;8.80;6.50;;;23.80;96.90;;;;;;5014481;28;20442;-64
2023/10/02 11:39:01;;;;;;;8.13;7.00;;;23.90;96.40;;;;;;5014626;28;20857;-65
2023/10/02 11:41:28;;;;;;;12.70;9.43;;;24.00;95.60;;;;;;5013890;28;20521;-65
2023/10/02 11:43:56;;;;;;;9.03;7.03;;;24.10;95.30;;;;;;5013969;28;20965;-65
2023/10/02 11:46:23;;;;;;;9.27;7.90;;;24.20;94.70;;;;;;5014257;28;21044;-65
2023/10/02 11:48:51;;;;;;;8.73;7.30;;;24.30;95.40;;;;;;5014684;28;20455;-66
2023/10/02 11:51:19;;;;;;;9.13;7.43;;;24.50;94.90;;;;;;5014085;28;21055;-66
2023/10/02 11:53:46;;;;;;;11.77;8.53;;;24.60;94.00;;;;;;5014135;28;20449;-65
2023/10/02 11:56:13;;;;;;;10.13;8.63;;;24.80;94.00;;;;;;5014059;28;20455;-66
2023/10/02 11:58:40;;;;;;;8.37;7.40;;;25.00;94.10;;;;;;5014527;28;20817;-65
2023/10/02 12:01:07;;;;;;;7.83;7.03;;;25.20;93.50;;;;;;5014281;28;20488;-65
2023/10/02 12:03:36;;;;;;;11.00;7.90;;;25.40;93.90;;;;;;5013907;28;20455;-66
2023/10/02 12:06:03;;;;;;;13.73;9.00;;;25.50;92.40;;;;;;5014140;28;20446;-66
2023/10/02 12:08:33;;;;;;;10.10;7.90;;;25.60;92.30;;;;;;5014259;28;20522;-66
2023/10/02 12:11:01;;;;;;;10.00;7.90;;;25.80;91.40;;;;;;5013802;28;21179;-66
2023/10/02 12:13:28;;;;;;;11.23;7.80;;;26.00;91.50;;;;;;5014160;28;20443;-66
2023/10/02 12:15:56;;;;;;;10.10;7.87;;;26.20;91.30;;;;;;5013472;28;20455;-65
2023/10/02 12:18:22;;;;;;;9.47;8.57;;;26.30;90.60;;;;;;5014036;28;20467;-66
2023/10/02 12:20:49;;;;;;;11.93;8.00;;;26.50;90.50;;;;;;5012127;28;20496;-66
2023/10/02 12:23:17;;;;;;;9.77;7.87;;;26.70;90.30;;;;;;5012565;28;21226;-66
2023/10/02 12:25:48;;;;;;;11.97;8.57;;;26.90;90.00;;;;;;5013319;28;20442;-66
2023/10/02 12:28:15;;;;;;;10.50;8.70;;;27.10;88.20;;;;;;5013699;28;20447;-66
2023/10/02 12:30:42;;;;;;;9.80;7.87;;;27.20;89.30;;;;;;5013092;28;20484;-66
2023/10/02 12:33:09;;;;;;;11.33;8.93;;;27.40;90.00;;;;;;5013241;28;20534;-66
2023/10/02 12:35:36;;;;;;;10.93;9.20;;;27.50;90.50;;;;;;5013113;28;20507;-66
2023/10/02 12:38:04;;;;;;;8.97;7.33;;;27.60;90.10;;;;;;5013053;28;20445;-66
2023/10/02 12:40:34;;;;;;;9.17;7.60;;;27.70;84.50;;;;;;5013153;28;20519;-66
2023/10/02 12:43:03;;;;;;;10.17;7.30;;;27.80;85.80;;;;;;5013224;28;20530;-66
2023/10/02 12:45:35;;;;;;;9.30;8.40;;;27.90;82.80;;;;;;5012813;28;20454;-66
2023/10/02 12:48:06;;;;;;;8.80;7.50;;;28.10;82.60;;;;;;4995833;28;20444;-66
2023/10/02 12:50:37;;;;;;;9.87;8.43;;;28.30;82.50;;;;;;5012122;28;20548;-66
2023/10/02 12:53:04;;;;;;;8.43;7.63;;;28.50;82.70;;;;;;5033482;22;20450;-65
2023/10/02 12:55:34;;;;;;;10.70;7.60;;;28.60;81.70;;;;;;5007500;28;20557;-65
2023/10/02 12:58:04;;;;;;;7.83;7.10;;;28.70;80.40;;;;;;4997000;28;20940;-65
2023/10/02 13:00:31;;;;;;;12.00;8.10;;;28.80;80.50;;;;;;5003786;28;21005;-65
2023/10/02 13:02:58;;;;;;;8.40;7.43;;;29.00;78.40;;;;;;5004780;28;20477;-65
2023/10/02 13:05:26;;;;;;;9.57;8.33;;;29.10;78.70;;;;;;4996573;28;20449;-65
2023/10/02 13:07:55;;;;;;;10.60;8.40;;;29.30;80.00;;;;;;5008833;28;20451;-65
2023/10/02 13:10:23;;;;;;;10.13;8.07;;;29.50;80.40;;;;;;4999977;28;20450;-65
2023/10/02 13:12:50;;;;;;;11.83;9.67;;;29.60;81.10;;;;;;5001279;28;20475;-65
2023/10/02 13:15:19;;;;;;;10.63;9.57;;;29.60;74.80;;;;;;5006885;28;20803;-65
2023/10/02 13:17:46;;;;;;;16.23;10.97;;;29.70;75.50;;;;;;4995778;28;20458;-64
2023/10/02 13:20:13;;;;;;;12.03;8.63;;;29.90;75.30;;;;;;5005970;28;20446;-65
2023/10/02 13:22:40;;;;;;;10.47;8.77;;;30.10;74.30;;;;;;5001461;28;20450;-65
2023/10/02 13:25:11;;;;;;;10.63;7.97;;;30.30;74.60;;;;;;4997570;28;20471;-64
2023/10/02 13:27:39;;;;;;;11.20;8.80;;;30.40;75.70;;;;;;4997386;28;20473;-65
2023/10/02 13:30:12;;;;;;;9.87;8.87;;;30.50;71.80;;;;;;5002516;28;20454;-65
2023/10/02 13:32:40;;;;;;;11.90;9.97;;;30.70;72.90;;;;;;5002365;28;20481;-64
2023/10/02 13:35:09;;;;;;;10.43;8.50;;;30.90;74.70;;;;;;5005141;28;20993;-65
2023/10/02 13:37:36;;;;;;;12.33;8.73;;;31.10;74.40;;;;;;4995610;28;20461;-64
2023/10/02 13:40:18;;;;;;;13.97;9.67;;;31.20;74.00;;;;;;5007467;28;20446;-64